createdAt,value
2023-05-20T00:01:33.068Z,77.84
2023-05-20T00:03:59.826Z,77.54
2023-05-20T00:06:26.444Z,75.59
2023-05-20T00:08:52.885Z,75.31
2023-05-20T00:11:19.371Z,76.42
2023-05-20T00:13:45.826Z,77.31
2023-05-20T00:16:12.343Z,76.82
2023-05-20T00:18:38.862Z,77.73
2023-05-20T00:21:05.348Z,78.19
2023-05-20T00:23:31.793Z,77.43
2023-05-20T00:26:00.594Z,78.57
2023-05-20T00:28:27.381Z,77.76
2023-05-20T00:30:54.700Z,78.30
2023-05-20T00:33:21.419Z,77.20
2023-05-20T00:35:48.003Z,76.89
2023-05-20T00:38:14.544Z,76.85
2023-05-20T00:40:41.051Z,76.32
2023-05-20T00:43:08.049Z,77.77
2023-05-20T00:45:34.847Z,76.65
2023-05-20T00:48:04.064Z,79.25
2023-05-20T00:50:31.972Z,77.91
2023-05-20T00:52:58.842Z,78.35
2023-05-20T00:55:25.763Z,81.11
2023-05-20T00:57:53.612Z,80.96
2023-05-20T01:00:20.093Z,81.77
2023-05-20T01:02:46.717Z,81.17
2023-05-20T01:05:13.293Z,81.26
2023-05-20T01:07:40.001Z,81.39
2023-05-20T01:10:07.251Z,82.23
2023-05-20T01:12:46.325Z,82.44
2023-05-20T01:15:14.849Z,82.09
2023-05-20T01:17:46.615Z,82.71
2023-05-20T01:20:14.597Z,83.56
2023-05-20T01:22:53.547Z,83.11
2023-05-20T01:25:20.087Z,82.13
2023-05-20T01:27:48.975Z,83.00
2023-05-20T01:30:16.174Z,84.07
2023-05-20T01:32:54.093Z,84.30
2023-05-20T01:35:22.446Z,84.15
2023-05-20T01:37:52.186Z,83.29
2023-05-20T01:40:19.992Z,84.74
2023-05-20T01:42:52.748Z,85.57
2023-05-20T01:45:19.848Z,85.17
2023-05-20T01:47:46.803Z,87.60
2023-05-20T01:50:13.428Z,86.06
2023-05-20T01:52:39.897Z,87.91
2023-05-20T01:55:06.626Z,87.12
2023-05-20T01:57:33.079Z,88.92
2023-05-20T01:59:59.605Z,89.09
2023-05-20T02:02:26.229Z,88.81
2023-05-20T02:04:54.134Z,90.03
2023-05-20T02:07:20.653Z,90.42
2023-05-20T02:09:47.645Z,90.64
2023-05-20T02:12:17.384Z,89.16
2023-05-20T02:14:45.220Z,90.64
2023-05-20T02:17:11.999Z,90.29
2023-05-20T02:19:38.461Z,91.70
2023-05-20T02:22:05.093Z,91.83
2023-05-20T02:24:31.888Z,93.43
2023-05-20T02:26:59.013Z,93.76
2023-05-20T02:29:26.545Z,92.41
2023-05-20T02:31:53.012Z,93.27
2023-05-20T02:34:21.364Z,93.73
2023-05-20T02:36:47.976Z,93.00
2023-05-20T02:39:14.574Z,92.65
2023-05-20T02:41:41.093Z,92.71
2023-05-20T02:44:07.566Z,94.21
2023-05-20T02:46:34.717Z,95.49
2023-05-20T02:49:01.306Z,94.29
2023-05-20T02:51:27.817Z,95.11
2023-05-20T02:53:54.303Z,92.80
2023-05-20T02:56:21.465Z,93.87
2023-05-20T02:58:48.456Z,93.51
2023-05-20T03:01:14.961Z,93.43
2023-05-20T03:03:42.887Z,94.71
2023-05-20T03:06:09.362Z,94.42
2023-05-20T03:08:36.320Z,95.58
2023-05-20T03:11:04.783Z,97.61
2023-05-20T03:13:31.928Z,95.65
2023-05-20T03:15:58.665Z,99.64
2023-05-20T03:18:25.387Z,96.15
2023-05-20T03:20:51.910Z,97.92
2023-05-20T03:23:18.387Z,99.95
2023-05-20T03:25:46.213Z,100.00
2023-05-20T03:28:12.854Z,100.00
2023-05-20T03:30:39.398Z,100.00
2023-05-20T03:33:05.980Z,100.00
2023-05-20T03:35:32.769Z,100.00
2023-05-20T03:38:01.728Z,100.00
2023-05-20T03:40:28.781Z,100.00
2023-05-20T03:42:55.624Z,99.07
2023-05-20T03:45:22.192Z,100.00
2023-05-20T03:47:57.826Z,99.79
2023-05-20T03:50:24.388Z,98.31
2023-05-20T03:52:50.884Z,99.27
2023-05-20T03:55:20.533Z,98.48
2023-05-20T03:57:47.352Z,98.80
2023-05-20T04:00:14.645Z,98.45
2023-05-20T04:02:43.667Z,100.00
2023-05-20T04:05:13.917Z,98.93
2023-05-20T04:07:41.300Z,98.16
2023-05-20T04:10:09.110Z,99.51
2023-05-20T04:12:38.203Z,99.04
2023-05-20T04:15:05.891Z,99.27
2023-05-20T04:17:40.567Z,98.60
2023-05-20T04:20:08.159Z,98.37
2023-05-20T04:22:37.036Z,97.37
2023-05-20T04:25:05.222Z,96.57
2023-05-20T04:27:33.684Z,97.94
2023-05-20T04:30:02.322Z,97.96
2023-05-20T04:32:34.451Z,98.15
2023-05-20T04:35:02.164Z,97.03
2023-05-20T04:37:32.070Z,96.66
2023-05-20T04:39:58.623Z,95.98
2023-05-20T04:42:25.815Z,95.41
2023-05-20T04:44:52.653Z,95.86
2023-05-20T04:47:19.142Z,97.01
2023-05-20T04:49:45.741Z,95.01
2023-05-20T04:52:12.377Z,95.69
2023-05-20T04:54:40.271Z,93.92
2023-05-20T04:57:07.064Z,95.57
2023-05-20T04:59:33.553Z,96.07
2023-05-20T05:02:00.221Z,94.91
2023-05-20T05:04:26.898Z,94.02
2023-05-20T05:06:53.390Z,93.74
2023-05-20T05:09:19.861Z,94.88
2023-05-20T05:11:46.672Z,95.56
2023-05-20T05:14:13.210Z,96.07
2023-05-20T05:16:39.897Z,96.47
2023-05-20T05:19:07.283Z,96.32
2023-05-20T05:21:36.757Z,96.43
2023-05-20T05:24:03.894Z,96.55
2023-05-20T05:26:30.451Z,98.28
2023-05-20T05:28:56.973Z,97.12
2023-05-20T05:31:23.513Z,97.99
2023-05-20T05:33:50.223Z,97.57
2023-05-20T05:36:17.015Z,97.15
2023-05-20T05:38:44.409Z,96.99
2023-05-20T05:41:10.885Z,97.46
2023-05-20T05:43:37.454Z,96.80
2023-05-20T05:46:05.217Z,97.37
2023-05-20T05:48:32.271Z,96.94
2023-05-20T05:50:59.263Z,97.13
2023-05-20T05:53:26.280Z,96.80
2023-05-20T05:55:52.777Z,97.60
2023-05-20T05:58:19.298Z,97.65
2023-05-20T06:00:45.820Z,97.61
2023-05-20T06:03:12.513Z,96.72
2023-05-20T06:05:39.874Z,97.28
2023-05-20T06:08:06.417Z,97.17
2023-05-20T06:10:34.861Z,96.44
2023-05-20T06:13:01.342Z,97.61
2023-05-20T06:15:28.064Z,96.75
2023-05-20T06:17:55.428Z,97.52
2023-05-20T06:20:22.118Z,96.61
2023-05-20T06:22:48.778Z,97.06
2023-05-20T06:25:15.332Z,97.08
2023-05-20T06:27:42.311Z,96.73
2023-05-20T06:30:11.954Z,97.45
2023-05-20T06:32:38.417Z,96.79
2023-05-20T06:35:05.689Z,96.38
2023-05-20T06:37:32.201Z,97.16
2023-05-20T06:39:58.663Z,95.92
2023-05-20T06:42:25.118Z,95.80
2023-05-20T06:45:03.109Z,96.25
2023-05-20T06:47:36.165Z,96.88
2023-05-20T06:50:02.725Z,95.71
2023-05-20T06:52:30.065Z,95.15
2023-05-20T06:54:56.521Z,95.10
2023-05-20T06:57:23.875Z,96.50
2023-05-20T06:59:50.350Z,96.79
2023-05-20T07:02:18.099Z,95.26
2023-05-20T07:04:44.566Z,95.18
2023-05-20T07:07:11.050Z,95.83
2023-05-20T07:09:37.778Z,95.39
2023-05-20T07:12:06.609Z,95.31
2023-05-20T07:14:33.085Z,95.78
2023-05-20T07:17:00.474Z,94.89
2023-05-20T07:19:27.066Z,94.99
2023-05-20T07:21:53.891Z,95.62
2023-05-20T07:24:36.026Z,94.47
2023-05-20T07:27:04.325Z,93.60
2023-05-20T07:29:31.321Z,94.41
2023-05-20T07:31:58.113Z,94.87
2023-05-20T07:34:24.883Z,94.41
2023-05-20T07:36:51.606Z,93.51
2023-05-20T07:39:18.122Z,93.64
2023-05-20T07:41:44.577Z,93.20
2023-05-20T07:44:13.085Z,92.52
2023-05-20T07:46:42.950Z,92.77
2023-05-20T07:49:11.103Z,93.21
2023-05-20T07:51:39.087Z,92.37
2023-05-20T07:54:05.925Z,93.10
2023-05-20T07:56:33.263Z,91.90
2023-05-20T07:59:00.541Z,91.41
2023-05-20T08:01:30.254Z,91.53
2023-05-20T08:03:57.130Z,90.49
2023-05-20T08:06:26.230Z,90.59
2023-05-20T08:08:54.266Z,90.05
2023-05-20T08:11:25.512Z,89.95
2023-05-20T08:13:52.145Z,89.74
2023-05-20T08:16:18.863Z,89.22
2023-05-20T08:18:45.605Z,88.77
2023-05-20T08:21:13.940Z,88.54
2023-05-20T08:23:40.720Z,88.08
2023-05-20T08:26:07.693Z,86.94
2023-05-20T08:28:37.918Z,86.42
2023-05-20T08:31:04.932Z,86.52
2023-05-20T08:33:32.556Z,85.32
2023-05-20T08:35:59.009Z,85.03
2023-05-20T08:38:25.483Z,84.83
2023-05-20T08:40:56.399Z,84.24
2023-05-20T08:43:24.571Z,84.14
2023-05-20T08:45:53.732Z,83.48
2023-05-20T08:48:23.253Z,82.63
2023-05-20T08:50:55.718Z,82.14
2023-05-20T08:53:22.606Z,81.91
2023-05-20T08:55:55.025Z,81.02
2023-05-20T08:58:23.289Z,81.85
2023-05-20T09:00:51.125Z,81.64
2023-05-20T09:03:17.911Z,82.04
2023-05-20T09:05:44.402Z,81.00
2023-05-20T09:08:11.836Z,81.47
2023-05-20T09:10:39.901Z,79.78
2023-05-20T09:13:07.345Z,80.25
2023-05-20T09:15:35.641Z,80.28
2023-05-20T09:18:04.206Z,79.79
2023-05-20T09:20:34.014Z,78.77
2023-05-20T09:23:01.953Z,78.54
2023-05-20T09:25:29.394Z,78.09
2023-05-20T09:27:56.171Z,78.61
2023-05-20T09:30:23.604Z,79.22
2023-05-20T09:32:54.345Z,79.33
2023-05-20T09:35:24.999Z,79.60
2023-05-20T09:37:56.028Z,79.88
2023-05-20T09:40:28.951Z,79.83
2023-05-20T09:43:07.272Z,79.87
2023-05-20T09:45:34.524Z,79.73
2023-05-20T09:48:02.112Z,79.44
2023-05-20T09:50:30.093Z,78.09
2023-05-20T09:52:56.877Z,78.21
2023-05-20T09:55:25.005Z,78.72
2023-05-20T09:57:53.170Z,78.42
2023-05-20T10:00:19.769Z,78.21
2023-05-20T10:02:49.034Z,78.29
2023-05-20T10:05:20.046Z,78.06
2023-05-20T10:07:58.592Z,78.49
2023-05-20T10:10:40.606Z,79.31
2023-05-20T10:13:18.102Z,77.43
2023-05-20T10:16:17.167Z,76.81
2023-05-20T10:19:11.919Z,75.42
2023-05-20T10:21:38.523Z,76.08
2023-05-20T10:24:09.229Z,75.30
2023-05-20T10:26:37.284Z,76.80
2023-05-20T10:29:18.157Z,75.67
2023-05-20T10:31:48.484Z,75.88
2023-05-20T10:34:17.424Z,74.86
2023-05-20T10:36:58.253Z,75.97
2023-05-20T10:39:34.508Z,74.29
2023-05-20T10:42:11.239Z,75.56
2023-05-20T10:44:41.614Z,74.35
2023-05-20T10:47:24.847Z,74.47
2023-05-20T10:49:52.655Z,74.12
2023-05-20T10:52:20.155Z,74.73
2023-05-20T10:54:57.343Z,75.17
2023-05-20T10:57:26.351Z,75.28
2023-05-20T10:59:53.188Z,76.45
2023-05-20T11:02:26.588Z,75.51
2023-05-20T11:04:53.803Z,73.75
2023-05-20T11:07:31.494Z,74.12
2023-05-20T11:09:58.819Z,74.04
2023-05-20T11:12:26.734Z,73.35
2023-05-20T11:14:53.673Z,73.87
2023-05-20T11:17:20.433Z,73.92
2023-05-20T11:19:47.773Z,74.09
2023-05-20T11:22:14.346Z,73.26
2023-05-20T11:24:40.937Z,72.27
2023-05-20T11:27:07.671Z,72.20
2023-05-20T11:29:34.164Z,71.81
2023-05-20T11:32:01.309Z,70.11
2023-05-20T11:34:34.771Z,69.95
2023-05-20T11:37:01.320Z,71.19
2023-05-20T11:39:30.521Z,71.30
2023-05-20T11:41:58.039Z,71.31
2023-05-20T11:44:25.035Z,72.28
2023-05-20T11:46:51.514Z,71.71
2023-05-20T11:49:17.969Z,70.43
2023-05-20T11:51:44.897Z,70.89
2023-05-20T11:54:11.706Z,69.55
2023-05-20T11:56:39.027Z,68.24
2023-05-20T11:59:06.548Z,69.00
2023-05-20T12:01:37.684Z,67.87
2023-05-20T12:04:08.319Z,67.35
2023-05-20T12:06:37.135Z,67.08
2023-05-20T12:09:08.532Z,66.72
2023-05-20T12:11:41.074Z,67.80
2023-05-20T12:14:08.688Z,66.93
2023-05-20T12:16:35.933Z,66.46
2023-05-20T12:19:02.906Z,66.78
2023-05-20T12:21:31.214Z,66.86
2023-05-20T12:23:59.692Z,67.12
2023-05-20T12:26:29.975Z,66.67
2023-05-20T12:28:56.715Z,66.00
2023-05-20T12:31:23.341Z,67.06
2023-05-20T12:33:49.886Z,66.01
2023-05-20T12:36:16.384Z,66.56
2023-05-20T12:38:42.906Z,65.98
2023-05-20T12:41:09.362Z,64.92
2023-05-20T12:43:37.499Z,65.37
2023-05-20T12:46:04.296Z,65.28
2023-05-20T12:48:30.873Z,63.99
2023-05-20T12:50:57.394Z,64.91
2023-05-20T12:53:23.861Z,64.10
2023-05-20T12:55:50.324Z,64.60
2023-05-20T12:58:16.808Z,64.35
2023-05-20T13:00:43.309Z,64.97
2023-05-20T13:03:09.982Z,65.04
2023-05-20T13:05:36.556Z,65.88
2023-05-20T13:08:03.211Z,66.06
2023-05-20T13:10:29.663Z,66.01
2023-05-20T13:12:56.723Z,66.37
2023-05-20T13:15:23.191Z,65.50
2023-05-20T13:17:49.735Z,65.07
2023-05-20T13:20:19.068Z,65.07
2023-05-20T13:22:46.405Z,65.40
2023-05-20T13:25:12.922Z,65.12
2023-05-20T13:27:39.463Z,64.04
2023-05-20T13:30:06.889Z,64.04
2023-05-20T13:32:33.456Z,64.00
2023-05-20T13:35:00.022Z,64.21
2023-05-20T13:37:26.536Z,63.78
2023-05-20T13:39:53.025Z,63.64
2023-05-20T13:42:19.480Z,62.74
2023-05-20T13:44:46.586Z,63.35
2023-05-20T13:47:13.061Z,62.57
2023-05-20T13:49:39.546Z,62.39
2023-05-20T13:52:06.186Z,62.48
2023-05-20T13:54:32.667Z,63.60
2023-05-20T13:56:59.123Z,62.23
2023-05-20T13:59:25.714Z,62.00
2023-05-20T14:01:53.583Z,62.25
2023-05-20T14:04:20.134Z,62.00
2023-05-20T14:06:46.625Z,62.09
2023-05-20T14:09:13.068Z,60.87
2023-05-20T14:11:39.532Z,62.53
2023-05-20T14:14:06.344Z,62.78
2023-05-20T14:16:33.140Z,63.17
2023-05-20T14:18:59.759Z,62.97
2023-05-20T14:21:26.267Z,63.37
2023-05-20T14:23:52.695Z,63.33
2023-05-20T14:26:19.161Z,63.42
2023-05-20T14:28:45.590Z,64.52
2023-05-20T14:31:12.077Z,63.75
2023-05-20T14:33:38.547Z,63.82
2023-05-20T14:36:05.148Z,63.89
2023-05-20T14:38:31.603Z,63.67
2023-05-20T14:40:58.077Z,63.86
2023-05-20T14:43:24.538Z,64.03
2023-05-20T14:45:51.965Z,63.84
2023-05-20T14:48:18.474Z,63.55
2023-05-20T14:50:44.967Z,62.99
2023-05-20T14:53:11.428Z,62.86
2023-05-20T14:55:37.914Z,63.11
2023-05-20T14:58:04.409Z,63.30
2023-05-20T15:00:32.731Z,62.30
2023-05-20T15:02:59.398Z,63.17
2023-05-20T15:05:25.883Z,63.13
2023-05-20T15:07:52.451Z,62.91
2023-05-20T15:10:18.979Z,63.12
2023-05-20T15:12:45.555Z,63.27
2023-05-20T15:15:12.100Z,63.36
2023-05-20T15:17:38.770Z,63.49
2023-05-20T15:20:05.877Z,63.89
2023-05-20T15:22:32.385Z,63.73
2023-05-20T15:24:58.894Z,62.70
2023-05-20T15:27:25.400Z,63.28
2023-05-20T15:29:51.880Z,62.88
2023-05-20T15:32:19.866Z,62.84
2023-05-20T15:34:46.440Z,62.99
2023-05-20T15:37:12.992Z,63.23
2023-05-20T15:39:39.517Z,63.59
2023-05-20T15:42:06.538Z,63.20
2023-05-20T15:44:33.512Z,63.84
2023-05-20T15:46:59.981Z,63.63
2023-05-20T15:49:26.444Z,63.77
2023-05-20T15:52:03.100Z,63.11
2023-05-20T15:54:31.053Z,63.15
2023-05-20T15:56:58.079Z,63.24
2023-05-20T15:59:24.675Z,63.22
2023-05-20T16:01:51.320Z,64.21
2023-05-20T16:04:18.014Z,64.91
2023-05-20T16:06:44.590Z,64.89
2023-05-20T16:09:11.260Z,65.31
2023-05-20T16:14:04.095Z,64.53
2023-05-20T16:16:30.627Z,65.05
2023-05-20T16:18:58.835Z,64.96
2023-05-20T16:21:26.061Z,65.74
2023-05-20T16:23:55.142Z,66.23
2023-05-20T16:26:22.718Z,66.31
2023-05-20T16:28:49.182Z,66.31
2023-05-20T16:31:15.674Z,66.44
2023-05-20T16:33:42.235Z,66.52
2023-05-20T16:36:08.676Z,66.46
2023-05-20T16:38:35.166Z,66.30
2023-05-20T16:41:01.874Z,66.64
2023-05-20T16:43:28.400Z,66.11
2023-05-20T16:45:54.936Z,66.70
2023-05-20T16:48:21.636Z,66.77
2023-05-20T16:50:48.093Z,66.62
2023-05-20T16:53:16.313Z,66.76
2023-05-20T16:55:43.050Z,66.92
2023-05-20T16:58:09.540Z,67.19
2023-05-20T17:00:36.179Z,67.00
2023-05-20T17:03:02.807Z,67.22
2023-05-20T17:05:29.309Z,67.40
2023-05-20T17:07:59.754Z,68.21
2023-05-20T17:10:27.776Z,67.85
2023-05-20T17:12:54.242Z,68.18
2023-05-20T17:15:20.728Z,67.98
2023-05-20T17:17:47.299Z,67.95
2023-05-20T17:20:13.813Z,68.30
2023-05-20T17:22:40.460Z,68.07
2023-05-20T17:25:07.204Z,68.16
2023-05-20T17:27:33.666Z,68.38
2023-05-20T17:30:00.232Z,67.93
2023-05-20T17:32:26.758Z,68.24
2023-05-20T17:34:53.219Z,68.32
2023-05-20T17:37:20.950Z,68.37
2023-05-20T17:39:47.413Z,68.84
2023-05-20T17:42:13.853Z,68.45
2023-05-20T17:44:40.626Z,69.06
2023-05-20T17:47:07.096Z,68.81
2023-05-20T17:49:33.565Z,69.26
2023-05-20T17:52:00.027Z,68.36
2023-05-20T17:54:26.485Z,69.26
2023-05-20T17:56:52.941Z,69.38
2023-05-20T17:59:19.413Z,69.05
2023-05-20T18:01:46.634Z,68.95
2023-05-20T18:04:13.168Z,69.15
2023-05-20T18:06:39.844Z,68.86
2023-05-20T18:09:06.290Z,69.19
2023-05-20T18:11:33.718Z,68.99
2023-05-20T18:14:00.620Z,69.58
2023-05-20T18:16:28.427Z,69.43
2023-05-20T18:18:55.818Z,69.78
2023-05-20T18:21:23.668Z,70.45
2023-05-20T18:23:50.410Z,70.09
2023-05-20T18:26:17.106Z,70.05
2023-05-20T18:28:43.579Z,70.02
2023-05-20T18:31:10.076Z,70.26
2023-05-20T18:33:37.057Z,70.26
2023-05-20T18:36:05.694Z,70.60
2023-05-20T18:38:32.480Z,70.48
2023-05-20T18:40:59.520Z,70.75
2023-05-20T18:43:26.565Z,70.42
2023-05-20T18:45:53.267Z,70.66
2023-05-20T18:48:26.692Z,70.70
2023-05-20T18:50:54.812Z,70.96
2023-05-20T18:53:21.574Z,70.39
2023-05-20T18:55:48.379Z,70.59
2023-05-20T18:58:15.166Z,70.52
2023-05-20T19:00:41.820Z,71.26
2023-05-20T19:03:08.418Z,71.27
2023-05-20T19:05:35.180Z,71.12
2023-05-20T19:08:02.716Z,71.19
2023-05-20T19:10:29.528Z,71.64
2023-05-20T19:12:56.589Z,72.30
2023-05-20T19:15:23.064Z,71.85
2023-05-20T19:17:49.565Z,72.72
2023-05-20T19:20:16.114Z,72.09
2023-05-20T19:22:42.594Z,72.24
2023-05-20T19:25:09.412Z,72.81
2023-05-20T19:27:36.170Z,72.72
2023-05-20T19:30:02.741Z,72.33
2023-05-20T19:32:29.516Z,72.08
2023-05-20T19:34:56.370Z,72.58
2023-05-20T19:37:24.354Z,73.29
2023-05-20T19:39:51.205Z,73.44
2023-05-20T19:42:20.925Z,73.96
2023-05-20T19:44:47.814Z,74.62
2023-05-20T19:47:14.667Z,74.66
2023-05-20T19:49:41.157Z,74.65
2023-05-20T19:52:07.721Z,74.61
2023-05-20T19:54:34.377Z,74.60
2023-05-20T19:57:00.844Z,74.83
2023-05-20T19:59:27.333Z,74.52
2023-05-20T20:01:53.907Z,74.70
2023-05-20T20:04:20.466Z,74.37
2023-05-20T20:06:47.999Z,75.14
2023-05-20T20:09:14.694Z,75.01
2023-05-20T20:11:41.315Z,74.47
2023-05-20T20:14:07.772Z,74.51
2023-05-20T20:16:34.659Z,74.46
2023-05-20T20:19:01.398Z,74.26
2023-05-20T20:21:27.924Z,74.24
2023-05-20T20:23:54.423Z,74.61
2023-05-20T20:26:25.661Z,74.33
2023-05-20T20:28:52.144Z,74.42
2023-05-20T20:31:18.638Z,74.23
2023-05-20T20:33:45.257Z,74.05
2023-05-20T20:36:11.723Z,74.18
2023-05-20T20:38:38.618Z,74.65
2023-05-20T20:41:05.149Z,74.36
2023-05-20T20:43:34.666Z,75.18
2023-05-20T20:46:01.239Z,74.72
2023-05-20T20:48:27.744Z,74.60
2023-05-20T20:50:54.361Z,74.81
2023-05-20T20:53:21.909Z,75.43
2023-05-20T20:55:48.449Z,75.76
2023-05-20T20:58:15.546Z,76.13
2023-05-20T21:00:44.915Z,76.11
2023-05-20T21:03:12.708Z,76.53
2023-05-20T21:05:39.674Z,77.11
2023-05-20T21:08:08.334Z,77.35
2023-05-20T21:10:36.972Z,77.13
2023-05-20T21:13:03.681Z,77.59
2023-05-20T21:15:30.237Z,77.97
2023-05-20T21:17:56.769Z,77.91
2023-05-20T21:20:23.515Z,78.62
2023-05-20T21:22:49.970Z,78.31
2023-05-20T21:25:16.569Z,78.54
2023-05-20T21:27:43.079Z,78.68
2023-05-20T21:30:10.750Z,78.81
2023-05-20T21:32:38.006Z,78.99
2023-05-20T21:35:04.751Z,78.96
2023-05-20T21:37:31.252Z,78.96
2023-05-20T21:39:57.720Z,79.67
2023-05-20T21:42:24.209Z,80.85
2023-05-20T21:44:50.731Z,80.17
2023-05-20T21:47:17.252Z,80.82
2023-05-20T21:49:43.725Z,81.53
2023-05-20T21:52:10.232Z,80.56
2023-05-20T21:54:36.686Z,79.79
2023-05-20T21:57:03.393Z,80.63
2023-05-20T21:59:29.900Z,81.04
2023-05-20T22:01:57.989Z,81.00
2023-05-20T22:04:25.068Z,81.80
2023-05-20T22:06:51.703Z,82.73
2023-05-20T22:09:18.283Z,82.52
2023-05-20T22:11:45.230Z,83.27
2023-05-20T22:14:15.990Z,84.27
2023-05-20T22:16:46.608Z,84.98
2023-05-20T22:19:15.106Z,86.23
2023-05-20T22:24:14.590Z,86.99
2023-05-20T22:26:41.075Z,86.95
2023-05-20T22:29:07.628Z,87.10
2023-05-20T22:31:34.128Z,87.04
2023-05-20T22:34:00.682Z,86.28
2023-05-20T22:36:28.056Z,86.40
2023-05-20T22:38:54.526Z,86.36
2023-05-20T22:41:21.715Z,86.22
2023-05-20T22:43:48.214Z,86.75
2023-05-20T22:46:14.768Z,87.17
2023-05-20T22:48:41.732Z,86.76
2023-05-20T22:51:08.884Z,86.74
2023-05-20T22:53:35.367Z,86.86
2023-05-20T22:56:02.310Z,87.20
2023-05-20T22:58:29.703Z,87.04
2023-05-20T23:00:56.523Z,87.45
2023-05-20T23:03:23.054Z,87.69
2023-05-20T23:05:49.531Z,87.63
2023-05-20T23:08:16.218Z,87.80
2023-05-20T23:10:42.668Z,88.06
2023-05-20T23:13:09.118Z,88.47
2023-05-20T23:15:35.716Z,88.43
2023-05-20T23:18:02.429Z,88.52
2023-05-20T23:20:29.602Z,88.57
2023-05-20T23:22:56.110Z,88.30
2023-05-20T23:25:24.353Z,87.93
2023-05-20T23:27:50.930Z,87.77
2023-05-20T23:30:17.416Z,88.74
2023-05-20T23:32:43.988Z,88.75
2023-05-20T23:35:11.529Z,88.38
2023-05-20T23:37:38.865Z,90.04
2023-05-20T23:40:06.527Z,89.34
2023-05-20T23:42:33.041Z,89.90
2023-05-20T23:44:59.531Z,90.35
2023-05-20T23:47:29.846Z,90.41
2023-05-20T23:49:57.499Z,90.08
2023-05-20T23:52:24.771Z,90.94
2023-05-20T23:54:52.045Z,90.92
2023-05-20T23:57:19.468Z,91.16
2023-05-20T23:59:49.074Z,91.78
